Buffalo, WY

6:31 AM MDT on October 02, 2014 (GMT -0600)
Johnson County | Change Station
CLOSE
Current Station
Airport
Location: Buffalo,
Elevation: 4967 ft
Nearby Weather Stations

Elev 4967 ft 44.38 °N, 106.72 °W | Updated 38 minutes ago

Clear
Clear
36 °F
Feels Like 31 °F
N
6
Wind Variable Wind from West

Today
High -- | Low -- °F
--% Chance of Precip.
Yesterday
High -- | Low -- °F
Precip. -- in
7:05 AM 6:45 PM
First Quarter, 58% visible
Pressure 30.02 in
Visibility 10.0 miles
Clouds Clear
Windchill 31 °F
Dew Point 26 °F
Humidity 67%
Rainfall 0.00 in
Snow Depth 0 in , 3 in , 2 in
UV 0 out of 12
Pollen 3.30 out of 12
Air Quality Not available.
Flu Activity Not available.
METAR KBYG 021153Z AUTO 26005KT 10SM CLR 02/M03 A3002 RMK AO2 SLP165 70007 T00221033 10056 20017 51001

More Conditions Fewer Conditions

Pressure 30.02 in
Visibility 10.0 miles
Clouds Clear
Windchill 31 °F
Dew Point 26 °F
Humidity 67%
Rainfall 0.00 in
Snow Depth 0 in , 3 in , 2 in
UV 0 out of 12
Pollen 3.30 out of 12
Air Quality Not available.
Flu Activity Not available.
METAR KBYG 021153Z AUTO 26005KT 10SM CLR 02/M03 A3002 RMK AO2 SLP165 70007 T00221033 10056 20017 51001

More Conditions Fewer Conditions

10-Day Weather Forecast

Almanac

Astronomy

Oct. 02, 2014 Rise Set
Actual Time 7:05 AM MDT 6:45 PM MDT
Civil Twilight 6:36 AM MDT 7:14 PM MDT
Nautical Twilight 6:03 AM MDT 7:48 PM MDT
Astronomical Twilight 5:29 AM MDT 8:22 PM MDT
Moon 3:05 PM MDT 12:13 AM MDT
Length of Visible Light 12h 37m
Length of Day
11h 39m
Tomorrow will be 3m 2s shorter.
First Quarter, 58% of the Moon is Illuminated
Today
First Quarter
Oct 8
Full
Oct 15
Last Quarter
Oct 23
New
Oct 30
First Quarter

Today's Extremes

State Highs State Lows

Community

WunderPhotos

Upload Photos

1,758,223 photos uploaded!

WunderBlogs® & News

Nearby

Snow Depth

Station Depth Elevation
Bear Trap Meadow 0 in 8200 ft
Owl Creek 3 in 8975 ft
Evening Star 2 in 9200 ft
Granite Creek 0 in 6770 ft
Two Ocean Plateau 2 in 9240 ft

Earthquake Activity

City Distance Mag. Time & Date
No recent earthquake activity has been reported nearby.
Minimum magnitude displayed is 2.5.

Coastal Water Temperatures

Place Temperature
No Stations Reporting

Nearby Weather Stations